Time;durP1;ratioP1;P1;durP2;ratioP2;P2;SDS_P1;SDS_P2;PMS_P1;PMS_P2;Temp;Humidity;BMP_temperature;BMP_pressure;BME280_temperature;BME280_humidity;BME280_pressure;Samples;Min_cycle;Max_cycle;Signal;HPM_P1;HPM_P2
2022/02/18 00:00:25;;;;;;;12.95;1.70;;;;;;;;;;5106546;27;20477;-74
2022/02/18 00:02:53;;;;;;;5.13;1.80;;;;;;;;;;5106026;28;20648;-74
2022/02/18 00:05:22;;;;;;;5.13;2.55;;;;;;;;;;5104234;28;20204;-74
2022/02/18 00:07:49;;;;;;;3.70;1.90;;;;;;;;;;5107908;28;20234;-75
2022/02/18 00:10:16;;;;;;;7.63;2.50;;;;;;;;;;5099125;28;20196;-75
2022/02/18 00:12:43;;;;;;;6.88;2.45;;;;;;;;;;5107844;28;20193;-75
2022/02/18 00:15:11;;;;;;;9.00;2.30;;;;;;;;;;5108086;28;20544;-75
2022/02/18 00:17:38;;;;;;;4.35;1.90;;;;;;;;;;5109248;28;20192;-75
2022/02/18 00:20:08;;;;;;;9.07;2.97;;;;;;;;;;5106856;28;20229;-75
2022/02/18 00:22:35;;;;;;;4.18;2.30;;;;;;;;;;5106160;28;20189;-75
2022/02/18 00:25:03;;;;;;;5.80;2.38;;;;;;;;;;5105727;28;20208;-75
2022/02/18 00:27:31;;;;;;;5.00;2.65;;;;;;;;;;5108756;28;20251;-75
2022/02/18 00:30:00;;;;;;;6.65;3.05;;;;;;;;;;5105941;28;20189;-74
2022/02/18 00:32:27;;;;;;;6.30;2.35;;;;;;;;;;5096978;28;20198;-75
2022/02/18 00:34:54;;;;;;;5.82;2.40;;;;;;;;;;5105031;28;20220;-75
2022/02/18 00:37:22;;;;;;;11.15;2.58;;;;;;;;;;5108301;28;20200;-75
2022/02/18 00:39:49;;;;;;;7.50;2.80;;;;;;;;;;5106157;28;20189;-75
2022/02/18 00:42:16;;;;;;;5.05;2.70;;;;;;;;;;5106902;28;20311;-75
2022/02/18 00:44:44;;;;;;;5.25;2.60;;;;;;;;;;5108006;28;20559;-74
2022/02/18 00:47:11;;;;;;;3.50;2.20;;;;;;;;;;5104716;28;20237;-75
2022/02/18 00:49:39;;;;;;;4.05;2.28;;;;;;;;;;5107847;28;20673;-74
2022/02/18 00:52:06;;;;;;;4.32;2.15;;;;;;;;;;5106517;28;20189;-75
2022/02/18 00:54:35;;;;;;;6.25;2.53;;;;;;;;;;5105569;28;20197;-74
2022/02/18 00:57:02;;;;;;;15.15;2.65;;;;;;;;;;5107657;28;20193;-74
2022/02/18 00:59:29;;;;;;;6.30;2.85;;;;;;;;;;5104290;28;20559;-74
2022/02/18 01:01:56;;;;;;;4.80;2.42;;;;;;;;;;5104105;28;20674;-74
2022/02/18 01:04:23;;;;;;;4.78;2.40;;;;;;;;;;5109144;28;20193;-74
2022/02/18 01:06:50;;;;;;;4.18;2.20;;;;;;;;;;5106227;28;20227;-74
2022/02/18 01:09:17;;;;;;;7.32;2.90;;;;;;;;;;5104655;28;20193;-74
2022/02/18 01:11:46;;;;;;;3.03;2.65;;;;;;;;;;5108991;28;20193;-74
2022/02/18 01:14:13;;;;;;;8.10;2.97;;;;;;;;;;5105521;28;20197;-74
2022/02/18 01:16:40;;;;;;;4.13;2.78;;;;;;;;;;5107190;28;20202;-75
2022/02/18 01:19:07;;;;;;;4.75;2.33;;;;;;;;;;5098803;28;20224;-75
2022/02/18 01:21:34;;;;;;;5.40;2.47;;;;;;;;;;5100713;28;20193;-74
2022/02/18 01:24:03;;;;;;;3.88;2.65;;;;;;;;;;5106328;28;20189;-74
2022/02/18 01:26:30;;;;;;;5.20;3.58;;;;;;;;;;5104938;28;20665;-74
2022/02/18 01:28:58;;;;;;;4.13;2.85;;;;;;;;;;5107910;28;20196;-74
2022/02/18 01:31:26;;;;;;;12.27;2.53;;;;;;;;;;5114260;28;20555;-74
2022/02/18 01:33:55;;;;;;;5.80;3.15;;;;;;;;;;5100888;28;20208;-75
2022/02/18 01:36:22;;;;;;;9.07;2.63;;;;;;;;;;5100401;28;20204;-74
2022/02/18 01:38:50;;;;;;;2.97;2.47;;;;;;;;;;5104274;28;20188;-75
2022/02/18 01:41:17;;;;;;;5.55;2.90;;;;;;;;;;5102857;28;20747;-75
2022/02/18 01:43:51;;;;;;;5.47;3.25;;;;;;;;;;5105273;28;20224;-75
2022/02/18 01:46:19;;;;;;;5.70;3.70;;;;;;;;;;5104571;28;20205;-75
2022/02/18 01:48:46;;;;;;;5.82;2.65;;;;;;;;;;5106868;28;20200;-75
2022/02/18 01:51:14;;;;;;;6.03;2.80;;;;;;;;;;5104760;28;20193;-74
2022/02/18 01:53:41;;;;;;;7.28;3.30;;;;;;;;;;5107740;28;20353;-74
2022/02/18 01:56:09;;;;;;;4.10;2.50;;;;;;;;;;5107524;28;21381;-75
2022/02/18 01:58:38;;;;;;;5.55;2.97;;;;;;;;;;5107898;28;20189;-75
2022/02/18 02:01:06;;;;;;;5.03;2.63;;;;;;;;;;5102030;28;20201;-75
2022/02/18 02:03:34;;;;;;;7.13;3.25;;;;;;;;;;5110517;27;20192;-75
2022/02/18 02:06:01;;;;;;;6.13;2.67;;;;;;;;;;5110772;28;20264;-75
2022/02/18 02:08:28;;;;;;;5.55;3.25;;;;;;;;;;5111701;28;20229;-75
2022/02/18 02:10:56;;;;;;;5.43;2.70;;;;;;;;;;5108634;28;20196;-75
2022/02/18 02:13:31;;;;;;;5.85;3.08;;;;;;;;;;5112570;28;20216;-74
2022/02/18 02:15:58;;;;;;;4.97;3.08;;;;;;;;;;5112825;28;20191;-75
2022/02/18 02:18:25;;;;;;;6.07;2.85;;;;;;;;;;5110939;28;20199;-74
2022/02/18 02:20:54;;;;;;;4.10;3.70;;;;;;;;;;5111415;27;20193;-74
2022/02/18 02:23:23;;;;;;;4.18;2.42;;;;;;;;;;5113270;27;20197;-74
2022/02/18 02:25:50;;;;;;;6.45;2.47;;;;;;;;;;5104359;28;20247;-74
2022/02/18 02:28:17;;;;;;;8.40;3.35;;;;;;;;;;5105438;28;20217;-75
2022/02/18 02:30:45;;;;;;;12.93;3.03;;;;;;;;;;5107577;28;20196;-75
2022/02/18 02:33:12;;;;;;;4.72;3.30;;;;;;;;;;5106443;27;20279;-74
2022/02/18 02:35:39;;;;;;;6.80;3.20;;;;;;;;;;5105542;28;20196;-75
2022/02/18 02:38:07;;;;;;;5.20;2.70;;;;;;;;;;5107783;28;20186;-75
2022/02/18 02:40:35;;;;;;;6.75;4.00;;;;;;;;;;5107065;27;20193;-75
2022/02/18 02:43:02;;;;;;;6.03;2.90;;;;;;;;;;5112698;28;20409;-75
2022/02/18 02:45:29;;;;;;;12.55;3.78;;;;;;;;;;5110649;28;20204;-75
2022/02/18 02:47:56;;;;;;;3.63;2.28;;;;;;;;;;5111238;28;20223;-75
2022/02/18 02:50:23;;;;;;;5.53;2.75;;;;;;;;;;5112209;28;20208;-75
2022/02/18 02:52:50;;;;;;;9.02;2.85;;;;;;;;;;5110929;28;20189;-75
2022/02/18 02:55:17;;;;;;;7.53;2.85;;;;;;;;;;5110712;27;20203;-75
2022/02/18 02:57:46;;;;;;;5.28;3.50;;;;;;;;;;5110519;28;20229;-75
2022/02/18 03:00:14;;;;;;;6.82;2.65;;;;;;;;;;5106445;28;20214;-75
2022/02/18 03:02:41;;;;;;;5.70;4.03;;;;;;;;;;5108437;28;20192;-75
2022/02/18 03:05:08;;;;;;;4.60;2.42;;;;;;;;;;5110364;28;20665;-75
2022/02/18 03:07:35;;;;;;;9.23;2.90;;;;;;;;;;5111007;28;20240;-75
2022/02/18 03:10:02;;;;;;;11.32;2.45;;;;;;;;;;5105581;28;20657;-75
2022/02/18 03:12:29;;;;;;;6.53;2.70;;;;;;;;;;5105194;27;20205;-74
2022/02/18 03:14:58;;;;;;;4.65;2.55;;;;;;;;;;5107768;28;20212;-74
2022/02/18 03:17:25;;;;;;;14.27;2.78;;;;;;;;;;5102729;28;20697;-74
2022/02/18 03:19:52;;;;;;;5.53;2.55;;;;;;;;;;5106865;28;20193;-74
2022/02/18 03:22:19;;;;;;;4.65;2.55;;;;;;;;;;5110162;28;20283;-75
2022/02/18 03:24:46;;;;;;;8.23;2.70;;;;;;;;;;5102830;28;20209;-74
2022/02/18 03:27:14;;;;;;;6.88;2.72;;;;;;;;;;5107453;28;20595;-74
2022/02/18 03:29:41;;;;;;;5.25;2.20;;;;;;;;;;5106121;28;20211;-74
2022/02/18 03:32:09;;;;;;;10.48;2.92;;;;;;;;;;5110754;28;20193;-74
2022/02/18 03:34:36;;;;;;;12.18;4.63;;;;;;;;;;5106112;27;20511;-75
2022/02/18 03:37:04;;;;;;;4.72;2.50;;;;;;;;;;5107227;28;20205;-74
2022/02/18 03:39:31;;;;;;;5.25;2.17;;;;;;;;;;5100982;28;20202;-74
2022/02/18 03:41:58;;;;;;;7.90;2.67;;;;;;;;;;5110899;28;20185;-74
2022/02/18 03:44:26;;;;;;;4.30;2.85;;;;;;;;;;5103356;28;20208;-75
2022/02/18 03:46:53;;;;;;;6.10;2.72;;;;;;;;;;5100804;28;20679;-74
2022/02/18 03:49:21;;;;;;;7.45;2.85;;;;;;;;;;5108415;28;20196;-74
2022/02/18 03:51:49;;;;;;;5.28;3.05;;;;;;;;;;5106460;28;20193;-74
2022/02/18 03:54:16;;;;;;;7.03;2.20;;;;;;;;;;5101633;27;20192;-74
2022/02/18 03:56:43;;;;;;;4.88;2.50;;;;;;;;;;5106519;28;20196;-74
2022/02/18 03:59:10;;;;;;;6.45;2.45;;;;;;;;;;5106599;28;20193;-75
2022/02/18 04:01:37;;;;;;;5.38;2.08;;;;;;;;;;5110327;28;20197;-74
2022/02/18 04:04:04;;;;;;;2.10;1.40;;;;;;;;;;5109212;27;20197;-74
2022/02/18 04:06:32;;;;;;;4.28;2.33;;;;;;;;;;5107787;28;20199;-74
2022/02/18 04:09:00;;;;;;;10.98;2.70;;;;;;;;;;5104564;27;20217;-74
2022/02/18 04:11:27;;;;;;;12.05;2.85;;;;;;;;;;5101237;28;20192;-75
2022/02/18 04:13:54;;;;;;;3.35;1.30;;;;;;;;;;5105255;28;20192;-74
2022/02/18 04:16:23;;;;;;;6.22;2.15;;;;;;;;;;5107088;28;20197;-74
2022/02/18 04:18:50;;;;;;;7.45;2.20;;;;;;;;;;5110520;28;20563;-74
2022/02/18 04:21:17;;;;;;;3.00;1.90;;;;;;;;;;5107025;28;20195;-75
2022/02/18 04:23:46;;;;;;;4.22;2.10;;;;;;;;;;5109091;28;20197;-74
2022/02/18 04:26:13;;;;;;;5.80;1.95;;;;;;;;;;5107896;28;20227;-74
2022/02/18 04:28:40;;;;;;;12.07;2.88;;;;;;;;;;5108407;28;20227;-74
2022/02/18 04:31:08;;;;;;;6.00;2.42;;;;;;;;;;5107123;27;20188;-74
2022/02/18 04:33:35;;;;;;;6.50;2.08;;;;;;;;;;5103908;28;20197;-74
2022/02/18 04:36:02;;;;;;;4.20;1.50;;;;;;;;;;5104749;28;20725;-75
2022/02/18 04:38:30;;;;;;;3.47;1.88;;;;;;;;;;5107838;28;20223;-75
2022/02/18 04:40:59;;;;;;;5.43;2.00;;;;;;;;;;5103265;28;20193;-74
2022/02/18 04:43:26;;;;;;;5.97;1.85;;;;;;;;;;5105908;28;20196;-75
2022/02/18 04:45:53;;;;;;;5.40;2.05;;;;;;;;;;5103665;28;20246;-75
2022/02/18 04:48:21;;;;;;;5.15;2.30;;;;;;;;;;5107909;28;20212;-74
2022/02/18 04:50:48;;;;;;;4.93;2.78;;;;;;;;;;5106857;28;20193;-75
2022/02/18 04:53:15;;;;;;;8.63;2.20;;;;;;;;;;5104822;28;20358;-75
2022/02/18 04:55:42;;;;;;;3.17;1.75;;;;;;;;;;5101904;28;20666;-74
2022/02/18 04:58:11;;;;;;;5.00;2.20;;;;;;;;;;5106530;28;20250;-76
2022/02/18 05:00:38;;;;;;;7.78;2.35;;;;;;;;;;5104044;28;20196;-75
2022/02/18 05:03:05;;;;;;;4.40;2.05;;;;;;;;;;5105475;28;20189;-75
2022/02/18 05:05:32;;;;;;;7.80;2.00;;;;;;;;;;5109284;28;20197;-75
2022/02/18 05:07:59;;;;;;;6.88;2.17;;;;;;;;;;5109317;28;20223;-75
2022/02/18 05:10:26;;;;;;;3.55;2.08;;;;;;;;;;5101850;28;20210;-76
2022/02/18 05:12:53;;;;;;;6.68;2.35;;;;;;;;;;5108398;28;20204;-75
2022/02/18 05:15:22;;;;;;;5.05;1.90;;;;;;;;;;5104949;28;20288;-76
2022/02/18 05:17:49;;;;;;;4.43;1.95;;;;;;;;;;5104673;28;20198;-74
2022/02/18 05:20:16;;;;;;;5.75;1.75;;;;;;;;;;5107314;28;20533;-76
2022/02/18 05:22:44;;;;;;;4.40;2.25;;;;;;;;;;5110250;28;20250;-76
2022/02/18 05:25:11;;;;;;;5.25;2.35;;;;;;;;;;5099129;27;20703;-76
2022/02/18 05:27:38;;;;;;;5.88;1.88;;;;;;;;;;5113536;28;20236;-75
2022/02/18 05:30:06;;;;;;;9.18;2.92;;;;;;;;;;5107119;27;20192;-74
2022/02/18 05:32:34;;;;;;;2.00;1.80;;;;;;;;;;5108853;27;20209;-75
2022/02/18 05:35:01;;;;;;;3.55;2.53;;;;;;;;;;5113048;28;20643;-74
2022/02/18 05:37:28;;;;;;;5.45;2.45;;;;;;;;;;5107751;28;20189;-74
2022/02/18 05:39:55;;;;;;;5.93;2.08;;;;;;;;;;5109831;27;20552;-74
2022/02/18 05:42:23;;;;;;;3.97;1.60;;;;;;;;;;5110461;28;21221;-74
2022/02/18 05:44:50;;;;;;;5.72;1.73;;;;;;;;;;5113971;28;20208;-74
2022/02/18 05:47:17;;;;;;;5.78;2.28;;;;;;;;;;5110405;28;20189;-72
2022/02/18 05:49:45;;;;;;;4.82;2.20;;;;;;;;;;5105193;27;20223;-71
2022/02/18 05:52:12;;;;;;;9.52;2.50;;;;;;;;;;5106000;28;20196;-75
2022/02/18 05:54:39;;;;;;;7.40;3.08;;;;;;;;;;5111029;28;20220;-73
2022/02/18 05:57:06;;;;;;;3.38;1.70;;;;;;;;;;5113980;27;20185;-75
2022/02/18 05:59:34;;;;;;;3.42;1.58;;;;;;;;;;5107052;28;20205;-71
2022/02/18 06:02:01;;;;;;;5.65;1.90;;;;;;;;;;5101915;28;20193;-73
2022/02/18 06:04:28;;;;;;;4.05;1.80;;;;;;;;;;5109666;28;20193;-77
2022/02/18 06:06:56;;;;;;;6.10;2.47;;;;;;;;;;5113822;28;20200;-75
2022/02/18 06:09:23;;;;;;;4.88;1.75;;;;;;;;;;5107877;28;22089;-73
2022/02/18 06:11:51;;;;;;;4.63;2.22;;;;;;;;;;5110003;28;20220;-72
2022/02/18 06:14:18;;;;;;;6.22;2.28;;;;;;;;;;5107946;27;20593;-76
2022/02/18 06:16:45;;;;;;;7.00;2.72;;;;;;;;;;5110941;28;20196;-78
2022/02/18 06:19:12;;;;;;;6.68;2.80;;;;;;;;;;5108371;28;20197;-75
2022/02/18 06:21:40;;;;;;;3.35;1.98;;;;;;;;;;5109846;28;20193;-83
2022/02/18 06:24:09;;;;;;;3.53;1.77;;;;;;;;;;5110667;27;20193;-83
2022/02/18 06:26:36;;;;;;;4.55;2.30;;;;;;;;;;5104621;28;20231;-80
2022/02/18 06:29:03;;;;;;;4.45;2.22;;;;;;;;;;5112034;28;20220;-81
2022/02/18 06:31:31;;;;;;;4.50;2.45;;;;;;;;;;5102016;27;20747;-81
2022/02/18 06:33:58;;;;;;;11.00;2.65;;;;;;;;;;5100399;28;20199;-81
2022/02/18 06:36:25;;;;;;;5.63;2.08;;;;;;;;;;5108609;28;20189;-80
2022/02/18 06:38:52;;;;;;;4.57;2.50;;;;;;;;;;5105206;28;20192;-85
2022/02/18 06:41:21;;;;;;;6.97;2.70;;;;;;;;;;5101188;27;20207;-84
2022/02/18 06:43:49;;;;;;;5.38;2.17;;;;;;;;;;5100114;27;20311;-81
2022/02/18 06:46:16;;;;;;;5.13;1.92;;;;;;;;;;5100171;27;20261;-86
2022/02/18 06:48:43;;;;;;;5.85;2.40;;;;;;;;;;5105417;27;20208;-85
2022/02/18 06:51:10;;;;;;;5.35;2.10;;;;;;;;;;5101856;28;20192;-84
2022/02/18 06:53:37;;;;;;;8.63;2.95;;;;;;;;;;5099296;28;20193;-85
2022/02/18 06:56:05;;;;;;;8.57;2.63;;;;;;;;;;5098700;27;20280;-84
2022/02/18 06:58:34;;;;;;;5.93;2.63;;;;;;;;;;5101819;27;20286;-85
2022/02/18 07:01:01;;;;;;;10.40;2.85;;;;;;;;;;5098124;27;20704;-82
2022/02/18 07:03:28;;;;;;;10.68;2.50;;;;;;;;;;5099502;27;20205;-86
2022/02/18 07:05:57;;;;;;;7.53;2.03;;;;;;;;;;5100949;27;20298;-83
2022/02/18 07:08:24;;;;;;;11.80;3.00;;;;;;;;;;5100528;27;20223;-83
2022/02/18 07:10:51;;;;;;;8.60;2.35;;;;;;;;;;5096948;27;20272;-84
2022/02/18 07:13:19;;;;;;;4.47;1.88;;;;;;;;;;5103313;27;20194;-85
2022/02/18 07:15:48;;;;;;;6.03;2.97;;;;;;;;;;5103027;27;20201;-84
2022/02/18 07:18:15;;;;;;;10.73;3.20;;;;;;;;;;5099400;28;20193;-84
2022/02/18 07:20:42;;;;;;;16.50;3.83;;;;;;;;;;5096861;27;20683;-85
2022/02/18 07:23:09;;;;;;;9.23;2.67;;;;;;;;;;5102673;28;20185;-84
2022/02/18 07:25:36;;;;;;;8.93;2.47;;;;;;;;;;5098483;27;20215;-86
2022/02/18 07:28:03;;;;;;;8.30;1.90;;;;;;;;;;5099884;27;20202;-83
2022/02/18 07:30:31;;;;;;;8.57;2.85;;;;;;;;;;5098670;27;20212;-81
2022/02/18 07:32:59;;;;;;;5.65;2.50;;;;;;;;;;5098418;27;20200;-85
2022/02/18 07:35:32;;;;;;;7.00;2.35;;;;;;;;;;5099809;27;20193;-85
2022/02/18 07:37:59;;;;;;;5.45;2.13;;;;;;;;;;5099534;27;20196;-85
2022/02/18 07:40:26;;;;;;;7.68;2.42;;;;;;;;;;5099931;27;20203;-87
2022/02/18 07:42:53;;;;;;;4.68;2.60;;;;;;;;;;5099873;28;20651;-86
2022/02/18 07:45:21;;;;;;;7.78;2.85;;;;;;;;;;5100115;27;20690;-83
2022/02/18 07:47:52;;;;;;;5.95;3.00;;;;;;;;;;5102817;28;20344;-82
2022/02/18 07:50:21;;;;;;;7.78;2.97;;;;;;;;;;5076931;27;20236;-81
2022/02/18 07:52:48;;;;;;;6.90;2.50;;;;;;;;;;5066020;28;20202;-82
2022/02/18 07:55:15;;;;;;;6.00;2.97;;;;;;;;;;5058042;28;20285;-83
2022/02/18 07:57:42;;;;;;;5.53;2.00;;;;;;;;;;5057795;28;20194;-82
2022/02/18 08:00:10;;;;;;;12.35;2.30;;;;;;;;;;5062180;28;20557;-84
2022/02/18 08:02:37;;;;;;;9.30;2.83;;;;;;;;;;5062312;28;20564;-82
2022/02/18 08:05:04;;;;;;;10.23;2.85;;;;;;;;;;5060273;28;20869;-84
2022/02/18 08:07:32;;;;;;;7.68;2.80;;;;;;;;;;5062585;28;20199;-79
2022/02/18 08:10:00;;;;;;;6.20;1.80;;;;;;;;;;5057438;28;20830;-78
2022/02/18 08:12:27;;;;;;;7.28;2.35;;;;;;;;;;5060288;28;20679;-81
2022/02/18 08:14:54;;;;;;;9.55;2.60;;;;;;;;;;5063746;28;20224;-83
2022/02/18 08:17:21;;;;;;;8.13;2.90;;;;;;;;;;5065869;28;20202;-82
2022/02/18 08:19:48;;;;;;;10.27;1.90;;;;;;;;;;5061331;28;20194;-82
2022/02/18 08:22:17;;;;;;;6.13;2.38;;;;;;;;;;5062308;28;20205;-81
2022/02/18 08:24:46;;;;;;;7.43;2.35;;;;;;;;;;5066443;28;20238;-79
2022/02/18 08:27:13;;;;;;;7.20;2.00;;;;;;;;;;5066026;28;20531;-82
2022/02/18 08:29:40;;;;;;;8.13;2.85;;;;;;;;;;5061204;28;20214;-78
2022/02/18 08:32:07;;;;;;;9.05;2.55;;;;;;;;;;5058795;28;20593;-83
2022/02/18 08:34:34;;;;;;;4.93;1.92;;;;;;;;;;5064263;28;20281;-80
2022/02/18 08:37:02;;;;;;;5.65;2.78;;;;;;;;;;5067141;28;20214;-79
2022/02/18 08:39:29;;;;;;;7.25;1.98;;;;;;;;;;5053093;28;20201;-81
2022/02/18 08:41:58;;;;;;;9.80;2.08;;;;;;;;;;5060649;28;20186;-76
2022/02/18 08:44:25;;;;;;;7.45;2.20;;;;;;;;;;5069193;28;20669;-76
2022/02/18 08:46:52;;;;;;;4.90;2.63;;;;;;;;;;5065504;28;20668;-78
2022/02/18 08:49:19;;;;;;;7.90;2.28;;;;;;;;;;5060382;28;20240;-77
2022/02/18 08:51:46;;;;;;;7.15;1.83;;;;;;;;;;5067570;28;20200;-77
2022/02/18 08:54:13;;;;;;;6.78;2.30;;;;;;;;;;5069958;28;20198;-77
2022/02/18 08:56:40;;;;;;;5.75;1.80;;;;;;;;;;5070353;28;20190;-76
2022/02/18 08:59:09;;;;;;;6.68;2.03;;;;;;;;;;5066811;28;20201;-77
2022/02/18 09:01:36;;;;;;;9.07;2.35;;;;;;;;;;5075688;28;20191;-77
2022/02/18 09:04:03;;;;;;;6.20;2.42;;;;;;;;;;5066595;28;20522;-77
2022/02/18 09:06:31;;;;;;;3.00;2.13;;;;;;;;;;5067057;28;20190;-77
2022/02/18 09:08:59;;;;;;;7.45;1.80;;;;;;;;;;5068029;28;20684;-77
2022/02/18 09:11:26;;;;;;;7.50;2.65;;;;;;;;;;5062473;28;20213;-78
2022/02/18 09:13:54;;;;;;;3.80;2.00;;;;;;;;;;5068783;28;20191;-78
2022/02/18 09:16:22;;;;;;;5.72;2.58;;;;;;;;;;5067721;28;20687;-77
2022/02/18 09:18:49;;;;;;;6.50;2.92;;;;;;;;;;5069413;28;20190;-80
2022/02/18 09:21:17;;;;;;;13.23;3.05;;;;;;;;;;5065462;28;20197;-78
2022/02/18 09:23:44;;;;;;;8.77;2.58;;;;;;;;;;5066420;28;20453;-76
2022/02/18 09:26:11;;;;;;;7.70;1.50;;;;;;;;;;5064795;28;20210;-77
2022/02/18 09:28:38;;;;;;;6.70;1.90;;;;;;;;;;5070950;28;20672;-77
2022/02/18 09:31:05;;;;;;;8.82;2.20;;;;;;;;;;5071455;28;20194;-77
2022/02/18 09:33:33;;;;;;;4.57;1.90;;;;;;;;;;5064879;28;20193;-81
2022/02/18 09:36:00;;;;;;;8.43;2.35;;;;;;;;;;5071199;28;20202;-81
2022/02/18 09:38:28;;;;;;;3.83;1.85;;;;;;;;;;5067307;28;20190;-82
2022/02/18 09:40:55;;;;;;;5.57;1.90;;;;;;;;;;5068850;28;20494;-81
2022/02/18 09:43:24;;;;;;;6.80;2.58;;;;;;;;;;5074105;28;20202;-81
2022/02/18 09:45:51;;;;;;;8.77;2.70;;;;;;;;;;5065871;28;20240;-74
2022/02/18 09:48:19;;;;;;;8.73;3.10;;;;;;;;;;5069366;28;20685;-79
2022/02/18 09:50:47;;;;;;;4.05;2.08;;;;;;;;;;5072255;28;20245;-79
2022/02/18 09:53:15;;;;;;;9.13;2.10;;;;;;;;;;5071640;28;20319;-75
2022/02/18 09:55:42;;;;;;;6.00;2.42;;;;;;;;;;5066627;28;20194;-77
2022/02/18 09:58:09;;;;;;;4.60;1.85;;;;;;;;;;5068961;28;20237;-77
2022/02/18 10:00:38;;;;;;;7.53;2.35;;;;;;;;;;5067578;28;20199;-78
2022/02/18 10:03:08;;;;;;;6.40;2.55;;;;;;;;;;5073590;28;20193;-78
2022/02/18 10:05:35;;;;;;;6.70;2.78;;;;;;;;;;5063419;28;20190;-78
2022/02/18 10:08:08;;;;;;;4.05;1.95;;;;;;;;;;5064667;28;20217;-78
2022/02/18 10:10:36;;;;;;;2.85;1.90;;;;;;;;;;5070459;28;20579;-78
2022/02/18 10:13:03;;;;;;;5.40;1.70;;;;;;;;;;5063816;28;20201;-79
2022/02/18 10:15:30;;;;;;;2.53;1.52;;;;;;;;;;5062330;28;20716;-77
2022/02/18 10:18:03;;;;;;;5.30;1.48;;;;;;;;;;5071792;28;20205;-78
2022/02/18 10:20:30;;;;;;;3.00;1.45;;;;;;;;;;5072244;28;20230;-78
2022/02/18 10:22:59;;;;;;;5.60;1.80;;;;;;;;;;5070473;28;20198;-79
2022/02/18 10:25:29;;;;;;;3.65;1.83;;;;;;;;;;5058774;28;20215;-79
2022/02/18 10:27:56;;;;;;;5.65;1.90;;;;;;;;;;5065831;28;20195;-78
2022/02/18 10:30:25;;;;;;;4.05;1.60;;;;;;;;;;5062824;28;20214;-78
2022/02/18 10:32:53;;;;;;;5.85;1.85;;;;;;;;;;5065659;28;20197;-77
2022/02/18 10:35:22;;;;;;;3.25;2.45;;;;;;;;;;5061858;28;20202;-76
2022/02/18 10:37:50;;;;;;;5.60;2.22;;;;;;;;;;5061323;28;20289;-76
2022/02/18 10:40:18;;;;;;;1.95;1.40;;;;;;;;;;5058382;28;20197;-76
2022/02/18 10:42:47;;;;;;;7.82;1.42;;;;;;;;;;5064391;28;20202;-75
2022/02/18 10:45:15;;;;;;;4.65;1.70;;;;;;;;;;5059558;28;20197;-75
2022/02/18 10:47:43;;;;;;;3.13;1.40;;;;;;;;;;5065320;28;20187;-83
2022/02/18 10:50:17;;;;;;;2.50;1.58;;;;;;;;;;5068652;28;20241;-80
2022/02/18 10:52:45;;;;;;;3.65;1.35;;;;;;;;;;5065634;28;20201;-81
2022/02/18 10:55:12;;;;;;;4.40;1.70;;;;;;;;;;5067219;28;20215;-82
2022/02/18 10:57:39;;;;;;;4.00;1.63;;;;;;;;;;5067441;28;20197;-80
2022/02/18 11:00:16;;;;;;;2.70;1.77;;;;;;;;;;5063008;28;20206;-80
2022/02/18 11:02:44;;;;;;;3.10;1.00;;;;;;;;;;5065017;28;20220;-80
2022/02/18 11:05:25;;;;;;;2.00;1.50;;;;;;;;;;5068590;28;20598;-81
2022/02/18 11:07:52;;;;;;;1.85;1.55;;;;;;;;;;5072715;28;20194;-80
2022/02/18 11:10:35;;;;;;;5.68;1.40;;;;;;;;;;5063714;28;20226;-81
2022/02/18 11:13:02;;;;;;;4.93;1.30;;;;;;;;;;5066829;28;20195;-81
2022/02/18 11:15:32;;;;;;;2.50;1.52;;;;;;;;;;5065915;28;20209;-80
2022/02/18 11:17:59;;;;;;;2.38;1.20;;;;;;;;;;5071885;28;20228;-80
2022/02/18 11:20:26;;;;;;;3.75;1.65;;;;;;;;;;5055640;28;20260;-81
2022/02/18 11:22:54;;;;;;;1.90;1.20;;;;;;;;;;5062626;28;20190;-79
2022/02/18 11:25:22;;;;;;;5.68;1.80;;;;;;;;;;5065806;28;20233;-80
2022/02/18 11:27:49;;;;;;;2.03;1.00;;;;;;;;;;5071833;28;20194;-81
2022/02/18 11:30:16;;;;;;;2.58;1.13;;;;;;;;;;5062777;28;20577;-81
2022/02/18 11:32:50;;;;;;;3.55;1.50;;;;;;;;;;5056722;28;20656;-81
2022/02/18 11:35:23;;;;;;;2.10;1.20;;;;;;;;;;5058997;28;20193;-81
2022/02/18 11:38:08;;;;;;;2.63;1.13;;;;;;;;;;5072344;28;20190;-79
2022/02/18 11:40:43;;;;;;;2.67;1.35;;;;;;;;;;5064064;28;20198;-81
2022/02/18 11:43:22;;;;;;;1.20;1.05;;;;;;;;;;5058720;28;20193;-78
2022/02/18 11:45:53;;;;;;;1.95;1.40;;;;;;;;;;5059057;28;20198;-80
2022/02/18 11:48:34;;;;;;;6.05;1.50;;;;;;;;;;5069202;28;20194;-80
2022/02/18 11:51:08;;;;;;;3.00;1.48;;;;;;;;;;5066893;28;20221;-81
2022/02/18 11:53:38;;;;;;;1.58;1.20;;;;;;;;;;5068568;28;20245;-80
2022/02/18 11:56:06;;;;;;;2.78;1.10;;;;;;;;;;5062526;28;20664;-81
2022/02/18 11:58:48;;;;;;;1.98;1.10;;;;;;;;;;5067165;28;20232;-80
2022/02/18 12:01:15;;;;;;;1.48;1.10;;;;;;;;;;5064630;28;20197;-81
2022/02/18 12:03:42;;;;;;;2.28;1.00;;;;;;;;;;5062420;28;20201;-81
2022/02/18 12:06:12;;;;;;;1.52;1.13;;;;;;;;;;5065146;28;20190;-81
2022/02/18 12:08:41;;;;;;;5.45;1.33;;;;;;;;;;5064342;28;20247;-81
2022/02/18 12:11:09;;;;;;;1.10;0.90;;;;;;;;;;5057209;28;20589;-80
2022/02/18 12:13:50;;;;;;;2.47;1.17;;;;;;;;;;5063015;28;20225;-81
2022/02/18 12:16:17;;;;;;;1.35;1.13;;;;;;;;;;5069114;28;20683;-77
2022/02/18 12:18:44;;;;;;;1.10;1.00;;;;;;;;;;5066045;28;20202;-81
2022/02/18 12:21:14;;;;;;;1.83;1.33;;;;;;;;;;5065890;28;20198;-84
2022/02/18 12:23:42;;;;;;;1.05;0.95;;;;;;;;;;5058901;28;20557;-78
2022/02/18 12:26:25;;;;;;;1.67;1.00;;;;;;;;;;5058498;28;20215;-81
2022/02/18 12:28:53;;;;;;;2.00;1.30;;;;;;;;;;5064043;28;20199;-76
2022/02/18 12:31:21;;;;;;;2.22;1.00;;;;;;;;;;5065402;28;20250;-86
2022/02/18 12:33:48;;;;;;;1.70;1.30;;;;;;;;;;5059727;28;20210;-78
2022/02/18 12:36:17;;;;;;;2.00;1.30;;;;;;;;;;5065340;28;20202;-76
2022/02/18 12:38:44;;;;;;;2.90;1.42;;;;;;;;;;5066733;28;20198;-77
2022/02/18 12:41:12;;;;;;;2.85;1.17;;;;;;;;;;5064016;28;20650;-77
2022/02/18 12:43:41;;;;;;;1.45;1.00;;;;;;;;;;5068755;28;20212;-75
2022/02/18 12:46:12;;;;;;;1.65;1.55;;;;;;;;;;5064561;28;20285;-74
2022/02/18 12:48:40;;;;;;;1.33;1.00;;;;;;;;;;5070326;28;20276;-75
2022/02/18 12:51:14;;;;;;;1.63;1.00;;;;;;;;;;5066264;28;20218;-74
2022/02/18 12:53:46;;;;;;;2.15;1.05;;;;;;;;;;5054114;28;20220;-75
2022/02/18 12:56:14;;;;;;;1.50;1.20;;;;;;;;;;5056345;28;20188;-74
2022/02/18 12:58:41;;;;;;;1.90;1.00;;;;;;;;;;5064833;28;20661;-74
2022/02/18 13:01:12;;;;;;;2.00;1.30;;;;;;;;;;5065661;28;20672;-75
2022/02/18 13:03:39;;;;;;;1.70;0.90;;;;;;;;;;5065323;28;20564;-74
2022/02/18 13:06:07;;;;;;;2.60;1.13;;;;;;;;;;5068854;28;20190;-75
2022/02/18 13:08:36;;;;;;;0.90;0.75;;;;;;;;;;5065232;28;20238;-75
2022/02/18 13:11:13;;;;;;;1.40;0.95;;;;;;;;;;5064063;28;20222;-74
2022/02/18 13:13:41;;;;;;;1.77;1.08;;;;;;;;;;5067995;28;20189;-77
2022/02/18 13:16:08;;;;;;;1.02;0.80;;;;;;;;;;5066790;28;20641;-74
2022/02/18 13:18:36;;;;;;;1.15;0.90;;;;;;;;;;5060883;28;20199;-73
2022/02/18 13:21:04;;;;;;;1.15;0.90;;;;;;;;;;5065862;28;20660;-74
2022/02/18 13:23:31;;;;;;;1.20;1.00;;;;;;;;;;5064483;28;20720;-74
2022/02/18 13:26:00;;;;;;;1.65;0.90;;;;;;;;;;5062377;28;20854;-74
2022/02/18 13:28:29;;;;;;;0.95;0.80;;;;;;;;;;5063633;28;20198;-75
2022/02/18 13:30:57;;;;;;;1.38;1.13;;;;;;;;;;5052008;28;20226;-75
2022/02/18 13:33:27;;;;;;;1.20;1.10;;;;;;;;;;5060511;28;20618;-75
2022/02/18 13:35:58;;;;;;;2.00;1.00;;;;;;;;;;5065198;28;20198;-76
2022/02/18 13:38:31;;;;;;;1.90;1.40;;;;;;;;;;5063877;28;20202;-75
2022/02/18 13:41:12;;;;;;;1.48;1.10;;;;;;;;;;5054133;28;20215;-74
2022/02/18 13:43:42;;;;;;;2.30;1.00;;;;;;;;;;5061534;28;20565;-73
2022/02/18 13:46:09;;;;;;;1.00;0.90;;;;;;;;;;5058042;28;20194;-74
2022/02/18 13:48:38;;;;;;;1.30;0.90;;;;;;;;;;5059044;28;20206;-72
2022/02/18 13:51:05;;;;;;;1.13;0.88;;;;;;;;;;5066209;28;20237;-72
2022/02/18 13:53:33;;;;;;;2.95;1.30;;;;;;;;;;5060353;28;20229;-70
2022/02/18 13:56:01;;;;;;;1.10;0.90;;;;;;;;;;5063255;28;20194;-71
2022/02/18 13:58:28;;;;;;;1.30;0.90;;;;;;;;;;5066988;28;20206;-71
2022/02/18 14:00:57;;;;;;;1.58;1.05;;;;;;;;;;5070801;28;20620;-70
2022/02/18 14:03:26;;;;;;;2.00;1.17;;;;;;;;;;5073862;28;20260;-70
2022/02/18 14:06:08;;;;;;;1.58;0.98;;;;;;;;;;5064991;28;20194;-69
2022/02/18 14:08:36;;;;;;;1.90;1.35;;;;;;;;;;5059331;28;20249;-70
2022/02/18 14:11:09;;;;;;;1.30;1.13;;;;;;;;;;5060932;28;20221;-70
2022/02/18 14:13:36;;;;;;;1.50;1.10;;;;;;;;;;5073179;28;20198;-70
2022/02/18 14:16:09;;;;;;;3.15;1.10;;;;;;;;;;5071778;28;20198;-74
2022/02/18 14:18:36;;;;;;;1.10;0.98;;;;;;;;;;5060472;28;20195;-74
2022/02/18 14:21:04;;;;;;;1.10;1.00;;;;;;;;;;5052339;28;20285;-74
2022/02/18 14:23:31;;;;;;;1.20;1.10;;;;;;;;;;5054221;28;20238;-74
2022/02/18 14:25:59;;;;;;;1.15;0.90;;;;;;;;;;5064470;28;20209;-73
2022/02/18 14:28:26;;;;;;;2.65;1.20;;;;;;;;;;5069523;28;20195;-74
2022/02/18 14:30:56;;;;;;;1.60;1.35;;;;;;;;;;5070380;28;20209;-75
2022/02/18 14:33:28;;;;;;;1.73;1.20;;;;;;;;;;5067000;28;20206;-76
2022/02/18 14:35:55;;;;;;;1.25;1.15;;;;;;;;;;5066377;28;20194;-75
2022/02/18 14:38:23;;;;;;;1.88;1.30;;;;;;;;;;5067460;28;20198;-74
2022/02/18 14:40:54;;;;;;;1.63;1.10;;;;;;;;;;5062553;28;20199;-75
2022/02/18 14:43:22;;;;;;;2.60;1.10;;;;;;;;;;5066311;28;20209;-74
2022/02/18 14:45:49;;;;;;;1.00;0.90;;;;;;;;;;5065219;28;20321;-75
2022/02/18 14:48:16;;;;;;;1.42;1.30;;;;;;;;;;5066655;28;20188;-74